Time;durP1;ratioP1;P1;durP2;ratioP2;P2;SDS_P1;SDS_P2;PMS_P1;PMS_P2;Temp;Humidity;BMP_temperature;BMP_pressure;BME280_temperature;BME280_humidity;BME280_pressure;Samples;Min_cycle;Max_cycle;Signal;HPM_P1;HPM_P2
2023/04/12 00:00:18;;;;;;;;;1.00;1.00;;;;;20.49;52.31;100249.60;110195;1264;19340;-39
2023/04/12 00:03:06;;;;;;;;;2.00;2.00;;;;;20.49;52.52;100253.92;110179;1264;22213;-42
2023/04/12 00:05:34;;;;;;;;;1.00;1.00;;;;;20.49;52.38;100246.88;110185;1264;20018;-40
2023/04/12 00:08:03;;;;;;;;;1.00;1.00;;;;;20.49;52.30;100250.39;110224;1264;20559;-40
2023/04/12 00:10:31;;;;;;;;;1.00;1.00;;;;;20.49;52.37;100246.54;110181;1251;19956;-40
2023/04/12 00:12:58;;;;;;;;;1.00;1.00;;;;;20.48;52.39;100249.92;110209;1261;20257;-37
2023/04/12 00:15:26;;;;;;;;;1.50;1.00;;;;;20.49;52.44;100248.76;110198;1264;19488;-39
2023/04/12 00:17:53;;;;;;;;;1.00;1.00;;;;;20.49;52.41;100247.13;110197;1251;22460;-39
2023/04/12 00:20:21;;;;;;;;;1.00;1.00;;;;;20.49;52.35;100246.92;110184;1264;20404;-40
2023/04/12 00:22:48;;;;;;;;;1.00;1.00;;;;;20.49;52.32;100242.86;110194;1257;22049;-39
2023/04/12 00:25:16;;;;;;;;;1.00;1.00;;;;;20.49;52.25;100242.23;110187;1264;18309;-39
2023/04/12 00:27:43;;;;;;;;;1.00;1.00;;;;;20.48;52.39;100238.53;110218;1264;19969;-39
2023/04/12 00:30:11;;;;;;;;;1.00;1.00;;;;;20.48;52.36;100237.57;110175;1251;20758;-39
2023/04/12 00:32:38;;;;;;;;;2.00;1.00;;;;;20.48;52.42;100236.20;110173;1251;22117;-40
2023/04/12 00:35:06;;;;;;;;;1.00;1.00;;;;;20.48;52.37;100233.80;110195;1264;19063;-41
2023/04/12 00:37:35;;;;;;;;;1.00;1.00;;;;;20.48;52.36;100236.86;110219;1251;20793;-41
2023/04/12 00:40:02;;;;;;;;;1.00;1.00;;;;;20.47;52.45;100236.77;110211;1264;18525;-41
2023/04/12 00:42:30;;;;;;;;;1.00;1.00;;;;;20.47;52.34;100238.22;110235;1264;20383;-40
2023/04/12 00:44:57;;;;;;;;;1.00;1.00;;;;;20.47;52.34;100237.52;110219;1251;22005;-40
2023/04/12 00:47:25;;;;;;;;;1.00;1.00;;;;;20.47;52.49;100233.66;110217;1264;18427;-40
2023/04/12 00:49:52;;;;;;;;;1.33;1.00;;;;;20.47;52.28;100234.80;110201;1264;19950;-41
2023/04/12 00:52:21;;;;;;;;;1.00;1.00;;;;;20.47;52.43;100233.83;110238;1264;19356;-40
2023/04/12 00:54:48;;;;;;;;;1.00;1.00;;;;;20.48;52.41;100234.30;110197;1264;22738;-40
2023/04/12 00:57:15;;;;;;;;;1.00;1.00;;;;;20.48;52.38;100230.91;110225;1264;19928;-40
2023/04/12 00:59:43;;;;;;;;;1.00;1.00;;;;;20.48;52.24;100224.91;110218;1251;20738;-40
2023/04/12 01:02:10;;;;;;;;;1.00;1.00;;;;;20.47;52.48;100225.34;110205;1251;22767;-40
2023/04/12 01:04:38;;;;;;;;;1.50;1.00;;;;;20.47;52.39;100229.77;110231;1264;20141;-40
2023/04/12 01:07:06;;;;;;;;;1.33;1.00;;;;;20.47;52.44;100232.87;110240;1264;19355;-40
2023/04/12 01:09:33;;;;;;;;;1.00;1.00;;;;;20.46;52.43;100239.80;110222;1251;19858;-41
2023/04/12 01:12:01;;;;;;;;;1.00;1.00;;;;;20.47;52.38;100236.94;110217;1264;19935;-40
2023/04/12 01:14:28;;;;;;;;;1.00;1.00;;;;;20.47;52.36;100238.23;110253;1251;20861;-40
2023/04/12 01:16:57;;;;;;;;;1.00;1.00;;;;;20.47;52.24;100235.85;110230;1264;18388;-40
2023/04/12 01:19:27;;;;;;;;;1.00;1.00;;;;;20.48;52.27;100242.27;110288;1264;18646;-41
2023/04/12 01:21:55;;;;;;;;;1.00;1.00;;;;;20.48;52.40;100240.13;110213;1264;22108;-44
2023/04/12 01:24:22;;;;;;;;;1.00;1.00;;;;;20.48;52.30;100241.30;110258;1250;19599;-41
2023/04/12 01:26:50;;;;;;;;;1.00;1.00;;;;;20.46;52.30;100240.31;110295;1264;19926;-40
2023/04/12 01:29:17;;;;;;;;;1.00;1.00;;;;;20.48;52.31;100240.16;110198;1251;20940;-41
2023/04/12 01:31:45;;;;;;;;;2.00;1.00;;;;;20.47;52.46;100239.77;110205;1251;19676;-40
2023/04/12 01:34:12;;;;;;;;;1.00;1.00;;;;;20.47;52.35;100234.51;110196;1264;20027;-40
2023/04/12 01:36:40;;;;;;;;;1.50;1.00;;;;;20.47;52.23;100234.88;110207;1251;21813;-40
2023/04/12 01:39:07;;;;;;;;;1.00;1.00;;;;;20.46;52.29;100237.47;110237;1264;19579;-40
2023/04/12 01:41:34;;;;;;;;;2.00;2.00;;;;;20.46;52.39;100239.84;110216;1264;20141;-40
2023/04/12 01:44:02;;;;;;;;;1.00;1.00;;;;;20.46;52.26;100238.20;110205;1264;20714;-42
2023/04/12 01:46:31;;;;;;;;;1.00;1.00;;;;;20.46;52.41;100236.92;110197;1264;22326;-40
2023/04/12 01:48:58;;;;;;;;;1.00;1.00;;;;;20.46;52.53;100237.30;110211;1251;19974;-40
2023/04/12 01:51:26;;;;;;;;;1.00;1.00;;;;;20.46;52.30;100235.08;110189;1264;19397;-40
2023/04/12 01:53:54;;;;;;;;;1.00;1.00;;;;;20.45;52.34;100232.84;110120;1264;19822;-40
2023/04/12 01:56:21;;;;;;;;;1.00;1.00;;;;;20.45;52.30;100240.61;110181;1264;18746;-40
2023/04/12 01:58:49;;;;;;;;;1.00;1.00;;;;;20.47;52.36;100245.23;110222;1264;19533;-39
2023/04/12 02:01:16;;;;;;;;;1.00;1.00;;;;;20.46;52.33;100249.98;110203;1251;18540;-39
2023/04/12 02:03:44;;;;;;;;;1.00;1.00;;;;;20.46;52.43;100250.15;110173;1264;19860;-41
2023/04/12 02:06:11;;;;;;;;;1.00;1.00;;;;;20.46;52.29;100247.81;110202;1251;20860;-41
2023/04/12 02:08:39;;;;;;;;;2.00;1.00;;;;;20.46;52.30;100253.84;110182;1264;18518;-41
2023/04/12 02:11:06;;;;;;;;;1.00;1.00;;;;;20.46;52.39;100255.64;110070;1264;19724;-41
2023/04/12 02:13:34;;;;;;;;;1.00;1.00;;;;;20.46;52.36;100256.75;110140;1264;22293;-41
2023/04/12 02:16:01;;;;;;;;;1.00;1.00;;;;;20.46;52.39;100252.70;110190;1251;19691;-43
2023/04/12 02:18:29;;;;;;;;;1.00;1.00;;;;;20.46;52.32;100250.52;110219;1264;19913;-41
2023/04/12 02:20:56;;;;;;;;;1.00;1.00;;;;;20.46;52.31;100241.88;110224;1264;19363;-41
2023/04/12 02:23:24;;;;;;;;;1.00;1.00;;;;;20.46;52.46;100243.86;110185;1264;22340;-40
2023/04/12 02:25:52;;;;;;;;;1.00;1.00;;;;;20.45;52.21;100242.85;110187;1251;20002;-41
2023/04/12 02:28:19;;;;;;;;;2.00;1.00;;;;;20.45;52.35;100245.19;110219;1250;20767;-40
2023/04/12 02:30:47;;;;;;;;;1.00;1.00;;;;;20.45;52.36;100247.90;110202;1264;18531;-40
2023/04/12 02:33:14;;;;;;;;;2.00;1.00;;;;;20.45;52.27;100251.16;110206;1264;18620;-40
2023/04/12 02:35:42;;;;;;;;;2.00;1.00;;;;;20.45;52.30;100251.02;110188;1264;20633;-39
2023/04/12 02:38:09;;;;;;;;;1.00;1.00;;;;;20.44;52.31;100248.20;110203;1264;18354;-40
2023/04/12 02:40:36;;;;;;;;;2.00;2.00;;;;;20.45;52.35;100246.83;110216;1264;19822;-39
2023/04/12 02:43:04;;;;;;;;;1.00;1.00;;;;;20.45;52.43;100247.75;110186;1251;22932;-39
2023/04/12 02:45:31;;;;;;;;;1.00;1.00;;;;;20.45;52.40;100247.90;110181;1260;19082;-39
2023/04/12 02:47:59;;;;;;;;;1.00;1.00;;;;;20.45;52.34;100242.83;110196;1264;18611;-39
2023/04/12 02:50:26;;;;;;;;;1.50;1.50;;;;;20.45;52.37;100244.29;110196;1251;23314;-39
2023/04/12 02:52:54;;;;;;;;;1.00;1.00;;;;;20.44;52.41;100242.55;110201;1264;19572;-40
2023/04/12 02:55:22;;;;;;;;;1.00;1.00;;;;;20.44;52.30;100240.54;110213;1264;18602;-40
2023/04/12 02:57:49;;;;;;;;;1.00;1.00;;;;;20.45;52.34;100247.18;110260;1264;19404;-40
2023/04/12 03:00:16;;;;;;;;;1.00;1.00;;;;;20.44;52.46;100244.71;110180;1264;19565;-40
2023/04/12 03:02:44;;;;;;;;;1.00;1.00;;;;;20.44;52.28;100243.84;110192;1264;19819;-40
2023/04/12 03:05:13;;;;;;;;;2.00;1.00;;;;;20.44;52.41;100245.64;110206;1264;22725;-40
2023/04/12 03:07:40;;;;;;;;;2.00;1.50;;;;;20.44;52.22;100241.31;110207;1264;18541;-40
2023/04/12 03:10:10;;;;;;;;;1.50;1.00;;;;;20.45;52.28;100243.60;110211;1264;20108;-39
2023/04/12 03:12:38;;;;;;;;;1.00;1.00;;;;;20.44;52.27;100236.26;110195;1251;21963;-39
2023/04/12 03:15:05;;;;;;;;;1.00;1.00;;;;;20.44;52.15;100228.94;110187;1257;18384;-40
2023/04/12 03:17:33;;;;;;;;;1.00;1.00;;;;;20.44;52.26;100223.04;110198;1251;22782;-41
2023/04/12 03:20:00;;;;;;;;;1.00;1.00;;;;;20.44;52.35;100221.77;110224;1264;19313;-40
2023/04/12 03:22:28;;;;;;;;;1.00;1.00;;;;;20.44;52.24;100225.51;110212;1250;22777;-40
2023/04/12 03:24:55;;;;;;;;;1.00;1.00;;;;;20.43;52.39;100227.79;110193;1264;18654;-41
2023/04/12 03:27:22;;;;;;;;;2.00;2.00;;;;;20.44;52.24;100233.30;110202;1264;21844;-41
2023/04/12 03:29:51;;;;;;;;;1.00;1.00;;;;;20.44;52.15;100227.00;110213;1251;19709;-41
2023/04/12 03:32:19;;;;;;;;;1.50;1.50;;;;;20.45;52.24;100225.40;110185;1251;22500;-41
2023/04/12 03:34:46;;;;;;;;;2.00;2.00;;;;;20.44;52.21;100224.23;110204;1264;19673;-41
2023/04/12 03:37:14;;;;;;;;;1.00;1.00;;;;;20.43;52.24;100222.31;110206;1264;18539;-41
2023/04/12 03:39:46;;;;;;;;;1.00;1.00;;;;;20.43;52.23;100219.63;110214;1250;23576;-41
2023/04/12 03:42:14;;;;;;;;;3.00;2.00;;;;;20.43;52.36;100223.95;110218;1264;22800;-40
2023/04/12 03:44:41;;;;;;;;;2.00;2.00;;;;;20.43;52.39;100224.35;110219;1259;22997;-41
2023/04/12 03:47:10;;;;;;;;;2.00;2.00;;;;;20.44;52.31;100225.55;110223;1264;19972;-40
2023/04/12 03:49:38;;;;;;;;;1.00;1.00;;;;;20.45;52.30;100222.38;110189;1251;19239;-40
2023/04/12 03:52:06;;;;;;;;;2.00;2.00;;;;;20.44;52.21;100220.46;110220;1251;18451;-40
2023/04/12 03:54:33;;;;;;;;;1.00;1.00;;;;;20.45;52.22;100215.50;110264;1264;18625;-40
2023/04/12 03:57:01;;;;;;;;;1.00;1.00;;;;;20.43;52.40;100215.44;110205;1251;20930;-39
2023/04/12 03:59:29;;;;;;;;;1.00;1.00;;;;;20.44;52.36;100212.80;110224;1264;21733;-39
2023/04/12 04:01:57;;;;;;;;;4.00;2.00;;;;;20.43;52.41;100210.27;110205;1264;22677;-39
2023/04/12 04:04:24;;;;;;;;;1.00;1.00;;;;;20.44;52.31;100212.61;110171;1251;20770;-40
2023/04/12 04:06:52;;;;;;;;;1.67;1.67;;;;;20.43;52.38;100213.96;110215;1257;18396;-40
2023/04/12 04:09:19;;;;;;;;;1.00;1.00;;;;;20.43;52.34;100211.41;110241;1264;22241;-40
2023/04/12 04:11:48;;;;;;;;;1.00;1.00;;;;;20.43;52.23;100214.17;110204;1264;20713;-40
2023/04/12 04:14:16;;;;;;;;;1.00;1.00;;;;;20.43;52.41;100213.46;110193;1264;19601;-43
2023/04/12 04:16:43;;;;;;;;;2.00;1.00;;;;;20.43;52.36;100212.21;110168;1251;19882;-39
2023/04/12 04:19:11;;;;;;;;;1.00;1.00;;;;;20.43;52.27;100218.91;110135;1251;20699;-40
2023/04/12 04:21:39;;;;;;;;;1.00;1.00;;;;;20.43;52.30;100225.07;110240;1250;19584;-41
2023/04/12 04:24:10;;;;;;;;;1.00;1.00;;;;;20.44;52.33;100223.20;110216;1264;23186;-40
2023/04/12 04:26:37;;;;;;;;;2.00;2.00;;;;;20.43;52.25;100224.36;110184;1264;19339;-40
2023/04/12 04:29:05;;;;;;;;;2.00;2.00;;;;;20.43;52.46;100228.92;110186;1264;18566;-40
2023/04/12 04:31:35;;;;;;;;;4.00;2.00;;;;;20.44;52.38;100228.30;110207;1264;19991;-40
2023/04/12 04:34:04;;;;;;;;;1.00;1.00;;;;;20.43;52.21;100226.00;110226;1264;19348;-41
2023/04/12 04:36:31;;;;;;;;;1.00;1.00;;;;;20.43;52.44;100221.84;110207;1250;22397;-40
2023/04/12 04:38:59;;;;;;;;;2.00;2.00;;;;;20.42;52.25;100222.37;110227;1264;20065;-40
2023/04/12 04:41:27;;;;;;;;;1.00;1.00;;;;;20.41;52.39;100218.84;110175;1250;22216;-40
2023/04/12 04:43:54;;;;;;;;;1.00;1.00;;;;;20.41;52.19;100211.90;110235;1250;22976;-40
2023/04/12 04:46:22;;;;;;;;;1.00;1.00;;;;;20.41;52.40;100212.98;110213;1264;19907;-41
2023/04/12 04:48:50;;;;;;;;;2.00;2.00;;;;;20.42;52.25;100213.95;110226;1256;21166;-41
2023/04/12 04:51:18;;;;;;;;;1.00;1.00;;;;;20.41;52.30;100214.63;110186;1264;18292;-40
2023/04/12 04:53:45;;;;;;;;;1.00;1.00;;;;;20.42;52.20;100223.92;110204;1251;18595;-41
2023/04/12 04:56:13;;;;;;;;;1.00;1.00;;;;;20.43;52.28;100226.06;110244;1264;19329;-40
2023/04/12 04:58:40;;;;;;;;;1.00;1.00;;;;;20.43;52.43;100225.52;110199;1249;20893;-40
2023/04/12 05:01:08;;;;;;;;;1.00;1.00;;;;;20.42;52.48;100228.48;110206;1251;20084;-40
2023/04/12 05:03:36;;;;;;;;;1.00;1.00;;;;;20.42;52.35;100236.48;110204;1264;22036;-40
2023/04/12 05:06:04;;;;;;;;;2.00;2.00;;;;;20.41;52.56;100235.89;110252;1250;19740;-40
2023/04/12 05:08:31;;;;;;;;;2.00;2.00;;;;;20.42;52.43;100240.80;110198;1250;22628;-40
2023/04/12 05:10:58;;;;;;;;;2.00;2.00;;;;;20.43;52.47;100243.15;110120;1264;19465;-40
2023/04/12 05:13:26;;;;;;;;;1.00;1.00;;;;;20.42;52.24;100240.84;110204;1250;19758;-41
2023/04/12 05:15:53;;;;;;;;;2.00;1.33;;;;;20.42;52.43;100242.98;110203;1251;21598;-40
2023/04/12 05:18:21;;;;;;;;;1.00;1.00;;;;;20.46;52.52;100238.24;110215;1264;20743;-40
2023/04/12 05:20:48;;;;;;;;;1.00;1.00;;;;;20.49;52.67;100243.10;110179;1264;18516;-41
2023/04/12 05:23:16;;;;;;;;;1.00;1.00;;;;;20.50;52.80;100246.35;110202;1264;18568;-40
2023/04/12 05:25:45;;;;;;;;;1.00;1.00;;;;;20.52;52.70;100251.58;110196;1251;22688;-40
2023/04/12 05:28:13;;;;;;;;;16.50;15.00;;;;;20.54;52.71;100254.11;110228;1264;22613;-40
2023/04/12 05:30:40;;;;;;;;;25.00;21.50;;;;;20.58;52.93;100255.51;110263;1264;18620;-39
2023/04/12 05:33:07;;;;;;;;;86.00;66.50;;;;;20.59;53.02;100256.11;110294;1251;22139;-39
2023/04/12 05:35:35;;;;;;;;;73.00;55.00;;;;;20.60;53.36;100255.30;110266;1251;20040;-39
2023/04/12 05:38:02;;;;;;;;;68.00;56.00;;;;;20.60;53.84;100256.10;110225;1264;20158;-40
2023/04/12 05:40:31;;;;;;;;;91.50;74.00;;;;;20.65;54.89;100254.09;110190;1251;20788;-40
2023/04/12 05:42:59;;;;;;;;;68.00;57.00;;;;;20.69;55.09;100255.58;110263;1264;18606;-40
2023/04/12 05:45:27;;;;;;;;;66.00;55.00;;;;;20.68;55.22;100246.43;110192;1264;18704;-39
2023/04/12 05:47:54;;;;;;;;;55.50;49.00;;;;;20.65;54.95;100247.91;110162;1264;19362;-39
2023/04/12 05:50:22;;;;;;;;;42.00;39.00;;;;;20.63;54.72;100240.70;110210;1264;20156;-40
2023/04/12 05:52:49;;;;;;;;;42.50;41.50;;;;;20.63;54.71;100239.06;110205;1251;18764;-40
2023/04/12 05:55:17;;;;;;;;;30.50;30.00;;;;;20.60;54.73;100234.77;110229;1251;22707;-40
2023/04/12 05:57:45;;;;;;;;;28.00;27.50;;;;;20.61;54.74;100240.09;110272;1264;18621;-40
2023/04/12 06:00:15;;;;;;;;;26.67;26.67;;;;;20.60;54.60;100237.08;110234;1257;22340;-39
2023/04/12 06:02:43;;;;;;;;;24.00;23.00;;;;;20.59;54.56;100232.97;110202;1250;21962;-40
2023/04/12 06:05:11;;;;;;;;;28.00;26.50;;;;;20.60;54.58;100236.20;110229;1251;20388;-41
2023/04/12 06:07:39;;;;;;;;;24.00;23.00;;;;;20.63;54.33;100237.23;110229;1264;20056;-40
2023/04/12 06:10:07;;;;;;;;;22.00;21.00;;;;;20.63;54.37;100236.17;110187;1251;19386;-41
2023/04/12 06:12:34;;;;;;;;;20.00;18.00;;;;;20.63;54.49;100236.69;110230;1250;18588;-39
2023/04/12 06:15:02;;;;;;;;;20.50;19.00;;;;;20.62;54.38;100236.96;110228;1264;22213;-40
2023/04/12 06:17:29;;;;;;;;;15.00;15.00;;;;;20.60;54.36;100235.94;110168;1264;20638;-40
2023/04/12 06:19:57;;;;;;;;;21.00;18.00;;;;;20.58;54.54;100231.15;110181;1264;19833;-41
2023/04/12 06:22:24;;;;;;;;;20.00;15.00;;;;;20.59;54.51;100231.73;110184;1257;22754;-39
2023/04/12 06:24:51;;;;;;;;;16.00;14.00;;;;;20.59;54.33;100233.41;110196;1251;22552;-40
2023/04/12 06:27:21;;;;;;;;;17.33;17.00;;;;;20.59;54.35;100231.40;110198;1264;18617;-39
2023/04/12 06:29:49;;;;;;;;;15.00;14.00;;;;;20.58;54.28;100228.97;110208;1264;22779;-40
2023/04/12 06:32:16;;;;;;;;;13.67;13.00;;;;;20.58;54.47;100227.86;110196;1257;22174;-40
2023/04/12 06:34:43;;;;;;;;;17.00;15.00;;;;;20.57;54.30;100230.02;110195;1249;18986;-40
2023/04/12 06:37:11;;;;;;;;;15.00;13.00;;;;;20.57;54.53;100231.41;110202;1251;20515;-40
2023/04/12 06:39:39;;;;;;;;;14.00;14.00;;;;;20.56;54.35;100230.10;110176;1264;20728;-41
2023/04/12 06:42:06;;;;;;;;;13.00;13.00;;;;;20.57;54.20;100227.84;110172;1264;20395;-41
2023/04/12 06:44:34;;;;;;;;;13.00;13.00;;;;;20.56;54.29;100224.65;110125;1264;18716;-41
2023/04/12 06:47:01;;;;;;;;;14.00;13.00;;;;;20.55;54.45;100222.42;110181;1264;22856;-42
2023/04/12 06:49:29;;;;;;;;;14.00;14.00;;;;;20.56;54.30;100226.48;110215;1264;22740;-40
2023/04/12 06:51:56;;;;;;;;;15.00;14.00;;;;;20.55;54.20;100229.12;110172;1250;20313;-40
2023/04/12 06:54:23;;;;;;;;;13.00;12.00;;;;;20.55;54.18;100233.10;110221;1264;22267;-40
2023/04/12 06:56:51;;;;;;;;;13.00;11.00;;;;;20.58;54.21;100233.31;110195;1264;18703;-40
2023/04/12 06:59:18;;;;;;;;;14.00;14.00;;;;;20.59;53.96;100227.38;110265;1251;20388;-40
2023/04/12 07:01:46;;;;;;;;;14.00;13.00;;;;;20.60;54.05;100225.63;110181;1251;20802;-40
2023/04/12 07:04:13;;;;;;;;;14.00;13.00;;;;;20.62;55.03;100224.77;110187;1251;19998;-40
2023/04/12 07:06:41;;;;;;;;;15.00;11.00;;;;;20.65;55.20;100226.70;110225;1264;18749;-40
2023/04/12 07:09:09;;;;;;;;;11.00;11.00;;;;;20.65;55.01;100226.29;110193;1251;22550;-41
2023/04/12 07:11:36;;;;;;;;;11.00;11.00;;;;;20.65;55.08;100226.66;110196;1251;20024;-40
2023/04/12 07:14:04;;;;;;;;;15.00;13.00;;;;;20.64;55.34;100226.41;110221;1251;20119;-41
2023/04/12 07:16:32;;;;;;;;;13.00;11.00;;;;;20.63;55.09;100226.17;110202;1249;23384;-41
2023/04/12 07:19:00;;;;;;;;;10.00;10.00;;;;;20.60;54.82;100226.02;110304;1264;22335;-41
2023/04/12 07:21:27;;;;;;;;;13.00;10.00;;;;;20.57;54.67;100226.89;110185;1264;22203;-41
2023/04/12 07:23:55;;;;;;;;;13.00;13.00;;;;;20.53;54.34;100225.02;110209;1264;19819;-41
2023/04/12 07:26:22;;;;;;;;;13.00;13.00;;;;;20.49;53.71;100224.09;110184;1264;19601;-42
2023/04/12 07:28:50;;;;;;;;;13.00;11.00;;;;;20.46;53.32;100225.52;110193;1264;20124;-39
2023/04/12 07:31:17;;;;;;;;;11.67;10.67;;;;;20.43;52.98;100226.73;110186;1251;19247;-42
2023/04/12 07:33:44;;;;;;;;;10.67;10.67;;;;;20.41;52.70;100229.52;110198;1264;22768;-41
2023/04/12 07:36:12;;;;;;;;;11.00;8.00;;;;;20.39;52.34;100232.27;110212;1264;19027;-41
2023/04/12 07:38:40;;;;;;;;;9.00;8.00;;;;;20.40;52.52;100229.13;110242;1251;20923;-44
2023/04/12 07:41:07;;;;;;;;;8.00;8.00;;;;;20.41;52.55;100227.05;110214;1260;18603;-41
2023/04/12 07:43:35;;;;;;;;;7.00;7.00;;;;;20.42;52.47;100223.30;110191;1251;19981;-41
2023/04/12 07:46:07;;;;;;;;;7.50;7.00;;;;;20.40;52.44;100221.42;110208;1264;21874;-41
2023/04/12 07:48:34;;;;;;;;;10.00;10.00;;;;;20.40;52.19;100221.88;110226;1264;18509;-41
2023/04/12 07:51:02;;;;;;;;;10.00;10.00;;;;;20.35;51.95;100222.61;110193;1251;21533;-41
2023/04/12 07:53:30;;;;;;;;;9.00;7.50;;;;;20.29;51.42;100217.16;110191;1264;20727;-41
2023/04/12 07:55:57;;;;;;;;;8.00;8.00;;;;;20.24;50.95;100213.48;110201;1256;18607;-41
2023/04/12 07:58:25;;;;;;;;;10.00;8.00;;;;;20.20;50.34;100214.50;110170;1251;19956;-42
2023/04/12 08:00:52;;;;;;;;;7.50;7.50;;;;;20.18;49.92;100214.35;110203;1251;20971;-41
2023/04/12 08:03:20;;;;;;;;;9.00;7.50;;;;;20.14;49.83;100209.84;110241;1250;18815;-41
2023/04/12 08:05:52;;;;;;;;;10.00;10.00;;;;;20.13;49.79;100210.59;110191;1250;20113;-40
2023/04/12 08:08:19;;;;;;;;;8.00;7.00;;;;;20.18;49.70;100211.29;110189;1251;22136;-40
2023/04/12 08:10:47;;;;;;;;;11.00;8.00;;;;;20.24;49.80;100217.49;110206;1264;18595;-41
2023/04/12 08:13:14;;;;;;;;;10.00;8.00;;;;;20.28;49.68;100215.34;110210;1264;20220;-40
2023/04/12 08:15:42;;;;;;;;;8.00;7.00;;;;;20.31;49.74;100213.87;110186;1264;22209;-41
2023/04/12 08:18:10;;;;;;;;;7.00;7.00;;;;;20.33;49.89;100209.83;110215;1264;18561;-40
2023/04/12 08:20:39;;;;;;;;;10.00;7.00;;;;;20.34;50.02;100212.97;110239;1264;20682;-41
2023/04/12 08:23:06;;;;;;;;;5.00;5.00;;;;;20.36;49.91;100215.11;110216;1257;23885;-39
2023/04/12 08:25:34;;;;;;;;;6.00;6.00;;;;;20.36;50.23;100213.66;110265;1264;18605;-40
2023/04/12 08:28:02;;;;;;;;;4.33;4.33;;;;;20.37;50.25;100217.48;109994;1264;296023;-41
2023/04/12 08:30:30;;;;;;;;;5.67;5.00;;;;;20.37;50.33;100215.67;110224;1264;19341;-38
2023/04/12 08:32:57;;;;;;;;;6.33;5.00;;;;;20.39;50.41;100219.98;110199;1251;18556;-40
2023/04/12 08:35:25;;;;;;;;;4.00;4.00;;;;;20.38;50.63;100216.83;110156;1264;20354;-41
2023/04/12 08:37:52;;;;;;;;;4.50;4.50;;;;;20.38;50.70;100217.33;110173;1251;20754;-41
2023/04/12 08:40:21;;;;;;;;;7.00;6.00;;;;;20.35;50.73;100216.70;110157;1264;18405;-41
2023/04/12 08:42:48;;;;;;;;;6.00;5.00;;;;;20.32;50.61;100216.73;110200;1264;20624;-40
2023/04/12 08:45:16;;;;;;;;;8.00;8.00;;;;;20.27;50.31;100217.22;110202;1264;21713;-40
2023/04/12 08:47:43;;;;;;;;;19.00;17.00;;;;;20.24;50.33;100215.20;110201;1264;18887;-40
2023/04/12 08:50:12;;;;;;;;;18.00;16.00;;;;;20.19;50.22;100215.58;110215;1264;20033;-43
2023/04/12 08:52:40;;;;;;;;;13.00;11.00;;;;;20.17;50.25;100214.67;110179;1264;19893;-41
2023/04/12 08:55:07;;;;;;;;;10.00;10.00;;;;;20.14;49.99;100215.07;110207;1251;20552;-40
2023/04/12 08:57:35;;;;;;;;;14.00;11.00;;;;;20.11;49.89;100218.48;110199;1264;20368;-41
2023/04/12 09:00:02;;;;;;;;;10.00;10.00;;;;;20.07;49.76;100217.27;110206;1251;21998;-41
2023/04/12 09:02:30;;;;;;;;;10.00;10.00;;;;;20.05;49.72;100213.77;110191;1264;18684;-41
2023/04/12 09:04:57;;;;;;;;;11.00;8.00;;;;;20.04;49.49;100212.15;110215;1264;21810;-39
2023/04/12 09:07:27;;;;;;;;;8.00;7.50;;;;;20.03;49.63;100206.78;110217;1264;19552;-42
2023/04/12 09:09:55;;;;;;;;;8.00;7.50;;;;;20.01;49.45;100206.77;110243;1264;22071;-40
2023/04/12 09:12:23;;;;;;;;;8.00;8.00;;;;;19.99;49.14;100204.34;110208;1264;19965;-42
2023/04/12 09:14:50;;;;;;;;;7.50;7.00;;;;;19.97;49.09;100204.19;110222;1264;19365;-40
2023/04/12 09:17:17;;;;;;;;;7.50;7.50;;;;;19.95;48.94;100202.98;110173;1264;18691;-42
2023/04/12 09:19:45;;;;;;;;;8.00;7.00;;;;;19.95;48.75;100200.09;110184;1264;20092;-40
2023/04/12 09:22:12;;;;;;;;;7.00;7.00;;;;;19.94;48.60;100198.38;110195;1264;19374;-41
2023/04/12 09:24:40;;;;;;;;;5.00;5.00;;;;;19.94;48.49;100197.11;110192;1251;19680;-41
2023/04/12 09:27:08;;;;;;;;;7.00;7.00;;;;;19.94;48.51;100192.96;110229;1262;20002;-41
2023/04/12 09:29:35;;;;;;;;;8.00;6.00;;;;;19.94;48.34;100194.63;110172;1264;21668;-42
2023/04/12 09:32:03;;;;;;;;;5.00;5.00;;;;;19.93;48.29;100192.33;110157;1251;19634;-41
2023/04/12 09:34:30;;;;;;;;;6.00;5.00;;;;;19.91;48.37;100190.10;110144;1264;19990;-41
2023/04/12 09:36:58;;;;;;;;;5.00;5.00;;;;;19.91;48.27;100188.30;110210;1251;20773;-41
2023/04/12 09:39:25;;;;;;;;;5.00;5.00;;;;;19.90;47.99;100190.52;110216;1264;18834;-41
2023/04/12 09:41:53;;;;;;;;;5.00;4.00;;;;;19.91;48.05;100190.86;110211;1264;18748;-41
2023/04/12 09:44:20;;;;;;;;;5.00;5.00;;;;;19.89;47.91;100190.63;110240;1264;19502;-41
2023/04/12 09:46:47;;;;;;;;;5.00;4.00;;;;;19.88;47.81;100191.56;110183;1260;19588;-41
2023/04/12 09:49:15;;;;;;;;;4.00;4.00;;;;;19.87;47.93;100193.60;110081;1264;19977;-41
2023/04/12 09:51:42;;;;;;;;;5.00;5.00;;;;;19.86;47.83;100194.30;110111;1250;19576;-41
2023/04/12 09:54:10;;;;;;;;;7.00;5.00;;;;;19.85;47.81;100195.14;110183;1264;18399;-41
2023/04/12 09:56:38;;;;;;;;;4.00;4.00;;;;;19.85;47.66;100198.11;110232;1251;20047;-41
2023/04/12 09:59:06;;;;;;;;;5.00;4.00;;;;;19.82;47.53;100195.70;110184;1257;23299;-41
2023/04/12 10:01:34;;;;;;;;;4.00;4.00;;;;;19.79;47.77;100198.80;110219;1265;20564;-40
2023/04/12 10:04:01;;;;;;;;;2.33;2.33;;;;;19.82;47.75;100194.81;110242;1257;18685;-41
2023/04/12 10:06:30;;;;;;;;;5.00;4.00;;;;;19.83;47.64;100194.79;110170;1264;19537;-41
2023/04/12 10:08:57;;;;;;;;;4.00;4.00;;;;;19.81;48.00;100192.55;110233;1264;18385;-41
2023/04/12 10:11:25;;;;;;;;;5.00;5.00;;;;;19.79;47.81;100189.19;110195;1264;22692;-41
2023/04/12 10:13:53;;;;;;;;;5.00;5.00;;;;;19.79;47.60;100192.95;110162;1264;22184;-41
2023/04/12 10:16:21;;;;;;;;;5.00;5.00;;;;;19.78;47.50;100187.13;110202;1251;18444;-43
2023/04/12 10:18:48;;;;;;;;;6.33;4.00;;;;;19.78;47.27;100181.35;110266;1264;18629;-40
2023/04/12 10:21:16;;;;;;;;;2.00;2.00;;;;;19.76;47.16;100182.04;110194;1257;23912;-40
2023/04/12 10:23:43;;;;;;;;;5.00;5.00;;;;;19.78;47.46;100180.80;110277;1251;18298;-41
2023/04/12 10:26:11;;;;;;;;;4.50;4.50;;;;;19.76;47.20;100178.70;110201;1251;19915;-40
2023/04/12 10:28:39;;;;;;;;;4.00;4.00;;;;;19.75;47.35;100178.02;110228;1264;19371;-41
2023/04/12 10:31:06;;;;;;;;;4.67;4.67;;;;;19.74;47.13;100176.86;110202;1264;19056;-41
2023/04/12 10:33:33;;;;;;;;;5.00;5.00;;;;;19.74;47.15;100170.88;110236;1251;18730;-40
2023/04/12 10:36:02;;;;;;;;;5.00;5.00;;;;;19.73;47.10;100175.52;110181;1251;22696;-41
2023/04/12 10:38:31;;;;;;;;;4.67;4.00;;;;;19.70;46.72;100174.80;110221;1264;22498;-41
2023/04/12 10:40:59;;;;;;;;;4.00;4.00;;;;;19.72;46.80;100178.20;110237;1264;20010;-41
2023/04/12 10:43:26;;;;;;;;;5.50;5.50;;;;;19.71;46.78;100180.19;110221;1251;19340;-40
2023/04/12 10:45:54;;;;;;;;;4.00;4.00;;;;;19.71;46.81;100179.27;110270;1251;18501;-41
2023/04/12 10:48:22;;;;;;;;;7.00;5.00;;;;;19.68;46.73;100180.27;110192;1264;23285;-41
2023/04/12 10:50:49;;;;;;;;;5.00;5.00;;;;;19.67;46.56;100180.83;110234;1264;20944;-41
2023/04/12 10:53:17;;;;;;;;;4.00;4.00;;;;;19.65;46.58;100180.51;110161;1264;18434;-42
2023/04/12 10:55:44;;;;;;;;;4.00;4.00;;;;;19.62;46.65;100174.17;110221;1251;22308;-41
2023/04/12 10:58:11;;;;;;;;;5.00;5.00;;;;;19.61;46.69;100175.34;110285;1251;21122;-41
2023/04/12 11:00:39;;;;;;;;;5.00;5.00;;;;;19.61;46.62;100170.36;110221;1264;19242;-41
2023/04/12 11:03:08;;;;;;;;;4.67;4.00;;;;;19.62;46.51;100166.19;110188;1264;18692;-42
2023/04/12 11:05:35;;;;;;;;;5.00;5.00;;;;;19.62;46.44;100168.04;110189;1251;22282;-41
2023/04/12 11:08:03;;;;;;;;;4.00;4.00;;;;;19.60;46.36;100162.98;110182;1264;18317;-42
2023/04/12 11:10:30;;;;;;;;;4.50;4.50;;;;;19.59;46.41;100161.27;110215;1264;22991;-40
2023/04/12 11:13:00;;;;;;;;;4.00;4.00;;;;;19.62;46.46;100160.45;110199;1264;19195;-41
2023/04/12 11:15:27;;;;;;;;;7.00;5.00;;;;;19.62;46.85;100154.10;110212;1264;19518;-40